createdAt,value
2019-04-06T00:01:33.284Z,20.90
2019-04-06T00:04:01.712Z,20.90
2019-04-06T00:06:30.158Z,20.90
2019-04-06T00:08:58.571Z,20.80
2019-04-06T00:11:27.007Z,20.80
2019-04-06T00:13:55.433Z,20.80
2019-04-06T00:16:23.857Z,20.80
2019-04-06T00:18:52.298Z,20.80
2019-04-06T00:21:20.714Z,20.80
2019-04-06T00:23:49.139Z,20.80
2019-04-06T00:26:17.560Z,20.80
2019-04-06T00:28:46.005Z,20.80
2019-04-06T00:31:32.247Z,20.80
2019-04-06T00:34:00.740Z,20.70
2019-04-06T00:36:29.160Z,20.70
2019-04-06T00:38:57.590Z,20.70
2019-04-06T00:41:26.073Z,20.70
2019-04-06T00:43:54.451Z,20.70
2019-04-06T00:46:22.872Z,20.70
2019-04-06T00:48:51.309Z,20.70
2019-04-06T00:51:19.714Z,20.70
2019-04-06T00:53:48.165Z,20.70
2019-04-06T00:56:16.586Z,20.70
2019-04-06T00:58:45.568Z,20.70
2019-04-06T01:01:14.013Z,20.60
2019-04-06T01:03:42.436Z,20.60
2019-04-06T01:06:10.882Z,20.60
2019-04-06T01:08:39.300Z,20.60
2019-04-06T01:11:07.736Z,20.60
2019-04-06T01:13:36.168Z,20.60
2019-04-06T01:16:04.606Z,20.60
2019-04-06T01:18:33.022Z,20.60
2019-04-06T01:21:01.451Z,20.60
2019-04-06T01:23:29.877Z,20.60
2019-04-06T01:26:06.619Z,20.60
2019-04-06T01:28:28.385Z,20.60
2019-04-06T01:30:56.812Z,20.50
2019-04-06T01:33:25.234Z,20.50
2019-04-06T01:35:53.656Z,20.50
2019-04-06T01:38:22.089Z,20.50
2019-04-06T01:40:50.571Z,20.50
2019-04-06T01:43:19.007Z,20.50
2019-04-06T01:45:47.359Z,20.50
2019-04-06T01:48:15.810Z,20.50
2019-04-06T01:50:44.246Z,20.50
2019-04-06T01:53:12.661Z,20.50
2019-04-06T01:55:41.097Z,20.50
2019-04-06T01:58:09.515Z,20.50
2019-04-06T02:00:39.585Z,20.50
2019-04-06T02:03:08.061Z,20.40
2019-04-06T02:05:36.508Z,20.40
2019-04-06T02:08:04.926Z,20.40
2019-04-06T02:10:33.358Z,20.40
2019-04-06T02:13:01.770Z,20.40
2019-04-06T02:15:30.219Z,20.40
2019-04-06T02:17:58.570Z,20.40
2019-04-06T02:20:26.975Z,20.40
2019-04-06T02:22:55.385Z,20.40
2019-04-06T02:25:23.787Z,20.40
2019-04-06T02:27:52.179Z,20.30
2019-04-06T02:30:25.257Z,20.40
2019-04-06T02:33:10.221Z,20.30
2019-04-06T02:35:46.137Z,20.30
2019-04-06T02:38:18.642Z,20.30
2019-04-06T02:40:51.554Z,20.30
2019-04-06T02:43:27.493Z,20.30
2019-04-06T02:45:55.920Z,20.30
2019-04-06T02:48:24.283Z,20.30
2019-04-06T02:50:52.765Z,20.30
2019-04-06T02:53:21.102Z,20.30
2019-04-06T02:55:49.505Z,20.30
2019-04-06T02:58:17.899Z,20.30
2019-04-06T03:00:46.523Z,20.20
2019-04-06T03:03:15.213Z,20.30
2019-04-06T03:05:43.767Z,20.20
2019-04-06T03:08:12.212Z,20.20
2019-04-06T03:10:40.599Z,20.20
2019-04-06T03:13:09.038Z,20.20
2019-04-06T03:15:37.414Z,20.20
2019-04-06T03:18:05.920Z,20.20
2019-04-06T03:20:34.315Z,20.20
2019-04-06T03:23:02.844Z,20.20
2019-04-06T03:25:31.219Z,20.20
2019-04-06T03:27:59.619Z,20.20
2019-04-06T03:30:28.030Z,20.20
2019-04-06T03:32:57.014Z,20.20
2019-04-06T03:35:26.304Z,20.10
2019-04-06T03:37:55.038Z,20.20
2019-04-06T03:40:23.425Z,20.20
2019-04-06T03:42:51.845Z,20.20
2019-04-06T03:45:20.227Z,20.10
2019-04-06T03:47:48.633Z,20.10
2019-04-06T03:50:16.991Z,20.10
2019-04-06T03:52:45.374Z,20.10
2019-04-06T03:55:13.828Z,20.10
2019-04-06T03:57:42.105Z,20.10
2019-04-06T04:00:10.542Z,20.10
2019-04-06T04:02:38.902Z,20.10
2019-04-06T04:05:07.372Z,20.10
2019-04-06T04:07:35.702Z,20.10
2019-04-06T04:10:06.210Z,20.00
2019-04-06T04:12:34.472Z,20.00
2019-04-06T04:15:02.938Z,20.00
2019-04-06T04:17:31.693Z,20.00
2019-04-06T04:19:59.976Z,20.00
2019-04-06T04:22:28.316Z,20.00
2019-04-06T04:24:56.598Z,20.00
2019-04-06T04:27:29.630Z,20.00
2019-04-06T04:29:54.872Z,20.00
2019-04-06T04:32:23.141Z,20.00
2019-04-06T04:34:51.429Z,20.00
2019-04-06T04:37:19.766Z,20.00
2019-04-06T04:39:48.072Z,20.00
2019-04-06T04:42:16.408Z,20.00
2019-04-06T04:44:44.826Z,20.00
2019-04-06T04:47:13.129Z,20.00
2019-04-06T04:49:41.582Z,19.90
2019-04-06T04:52:10.058Z,20.00
2019-04-06T04:54:38.336Z,19.90
2019-04-06T04:57:06.688Z,19.90
2019-04-06T04:59:35.040Z,19.90
2019-04-06T05:02:03.307Z,19.90
2019-04-06T05:04:31.760Z,19.90
2019-04-06T05:07:00.409Z,19.90
2019-04-06T05:09:28.694Z,19.90
2019-04-06T05:11:56.981Z,19.90
2019-04-06T05:14:54.274Z,19.90
2019-04-06T05:17:22.613Z,19.90
2019-04-06T05:19:50.892Z,19.90
2019-04-06T05:22:19.233Z,19.90
2019-04-06T05:24:47.594Z,19.90
2019-04-06T05:27:16.086Z,19.90
2019-04-06T05:29:45.992Z,19.90
2019-04-06T05:32:14.256Z,19.90
2019-04-06T05:34:42.541Z,19.90
2019-04-06T05:37:10.824Z,19.90
2019-04-06T05:39:39.134Z,19.90
2019-04-06T05:42:07.405Z,20.00
2019-04-06T05:44:35.671Z,19.90
2019-04-06T05:47:04.073Z,19.90
2019-04-06T05:49:32.389Z,20.00
2019-04-06T05:52:00.682Z,20.00
2019-04-06T05:54:28.959Z,20.00
2019-04-06T05:56:57.270Z,20.00
2019-04-06T05:59:25.601Z,20.00
2019-04-06T06:01:53.895Z,20.00
2019-04-06T06:04:22.175Z,20.00
2019-04-06T06:06:50.525Z,20.00
2019-04-06T06:09:18.817Z,20.10
2019-04-06T06:11:47.153Z,20.00
2019-04-06T06:14:15.447Z,20.10
2019-04-06T06:16:43.709Z,20.10
2019-04-06T06:19:12.053Z,20.10
2019-04-06T06:21:40.399Z,20.10
2019-04-06T06:24:08.789Z,20.10
2019-04-06T06:26:37.098Z,20.10
2019-04-06T06:29:09.442Z,20.10
2019-04-06T06:31:37.789Z,20.10
2019-04-06T06:34:06.275Z,20.10
2019-04-06T06:36:35.144Z,20.20
2019-04-06T06:39:05.705Z,20.20
2019-04-06T06:41:33.989Z,20.20
2019-04-06T06:44:02.507Z,20.20
2019-04-06T06:46:30.837Z,20.20
2019-04-06T06:48:59.243Z,20.20
2019-04-06T06:51:27.586Z,20.20
2019-04-06T06:53:55.960Z,20.20
2019-04-06T06:56:24.300Z,20.20
2019-04-06T06:58:52.657Z,20.20
2019-04-06T07:01:20.938Z,20.20
2019-04-06T07:03:49.223Z,20.30
2019-04-06T07:06:17.499Z,20.30
2019-04-06T07:08:45.806Z,20.30
2019-04-06T07:11:14.148Z,20.30
2019-04-06T07:13:42.498Z,20.30
2019-04-06T07:16:10.772Z,20.30
2019-04-06T07:18:39.077Z,20.30
2019-04-06T07:21:07.415Z,20.40
2019-04-06T07:23:35.770Z,20.40
2019-04-06T07:26:04.230Z,20.40
2019-04-06T07:28:38.452Z,20.40
2019-04-06T07:31:02.594Z,20.50
2019-04-06T07:33:30.916Z,20.50
2019-04-06T07:35:59.250Z,20.50
2019-04-06T07:38:27.540Z,20.60
2019-04-06T07:40:55.801Z,20.60
2019-04-06T07:43:24.093Z,20.60
2019-04-06T07:45:52.434Z,20.60
2019-04-06T07:48:20.903Z,20.60
2019-04-06T07:50:49.685Z,20.70
2019-04-06T07:53:18.017Z,20.60
2019-04-06T07:55:46.311Z,20.70
2019-04-06T07:58:14.827Z,20.70
2019-04-06T08:00:43.199Z,20.70
2019-04-06T08:03:11.473Z,20.70
2019-04-06T08:05:39.896Z,20.70
2019-04-06T08:08:08.213Z,20.70
2019-04-06T08:10:36.490Z,20.80
2019-04-06T08:13:04.813Z,20.80
2019-04-06T08:15:49.793Z,20.80
2019-04-06T08:18:18.235Z,20.80
2019-04-06T08:20:46.516Z,20.80
2019-04-06T08:23:14.873Z,20.80
2019-04-06T08:25:43.240Z,20.80
2019-04-06T08:28:11.505Z,20.90
2019-04-06T08:30:45.334Z,20.90
2019-04-06T08:33:09.787Z,20.90
2019-04-06T08:35:38.069Z,20.90
2019-04-06T08:38:06.341Z,20.90
2019-04-06T08:40:34.758Z,20.90
2019-04-06T08:43:03.035Z,20.90
2019-04-06T08:45:31.624Z,20.90
2019-04-06T08:48:00.551Z,20.90
2019-04-06T08:50:29.034Z,20.90
2019-04-06T08:52:57.543Z,20.90
2019-04-06T08:55:26.032Z,21.00
2019-04-06T08:57:54.451Z,21.00
2019-04-06T09:00:22.788Z,21.00
2019-04-06T09:02:51.364Z,21.00
2019-04-06T09:05:20.119Z,21.00
2019-04-06T09:07:49.686Z,21.10
2019-04-06T09:10:18.042Z,21.10
2019-04-06T09:12:54.072Z,21.10
2019-04-06T09:15:30.672Z,21.10
2019-04-06T09:17:59.015Z,21.10
2019-04-06T09:20:27.300Z,21.10
2019-04-06T09:22:55.652Z,21.10
2019-04-06T09:25:24.004Z,21.20
2019-04-06T09:27:52.298Z,21.20
2019-04-06T09:30:27.099Z,21.20
2019-04-06T09:32:55.383Z,21.20
2019-04-06T09:35:23.722Z,21.30
2019-04-06T09:37:54.862Z,21.30
2019-04-06T09:40:23.206Z,21.30
2019-04-06T09:42:51.516Z,21.40
2019-04-06T09:45:21.719Z,21.40
2019-04-06T09:47:52.027Z,21.40
2019-04-06T09:50:37.211Z,21.40
2019-04-06T09:53:23.535Z,21.50
2019-04-06T09:56:02.173Z,21.50
2019-04-06T09:58:34.875Z,21.50
2019-04-06T10:01:07.496Z,21.50
2019-04-06T10:03:43.248Z,21.50
2019-04-06T10:06:32.114Z,21.50
2019-04-06T10:09:15.739Z,21.50
2019-04-06T10:11:57.587Z,21.50
2019-04-06T10:14:43.906Z,21.50
2019-04-06T10:17:29.331Z,21.50
2019-04-06T10:20:05.226Z,21.50
2019-04-06T10:22:37.932Z,21.50
2019-04-06T10:25:10.626Z,21.50
2019-04-06T10:27:57.595Z,21.50
2019-04-06T10:30:43.425Z,21.50
2019-04-06T10:33:16.061Z,21.50
2019-04-06T10:36:02.284Z,21.50
2019-04-06T10:38:47.503Z,21.50
2019-04-06T10:41:26.480Z,21.60
2019-04-06T10:43:56.403Z,21.60
2019-04-06T10:46:44.372Z,21.60
2019-04-06T10:49:17.385Z,21.60
2019-04-06T10:51:53.738Z,21.60
2019-04-06T10:54:39.994Z,21.60
2019-04-06T10:57:09.997Z,21.60
2019-04-06T11:00:01.008Z,21.60
2019-04-06T11:02:39.637Z,21.60
2019-04-06T11:05:12.454Z,21.50
2019-04-06T11:07:54.849Z,21.60
2019-04-06T11:10:36.893Z,21.60
2019-04-06T11:13:06.886Z,21.60
2019-04-06T11:15:53.583Z,21.60
2019-04-06T11:18:35.721Z,21.60
2019-04-06T11:21:05.660Z,21.70
2019-04-06T11:23:38.295Z,21.70
2019-04-06T11:26:23.065Z,21.70
2019-04-06T11:32:05.046Z,21.70
2019-04-06T11:34:50.021Z,21.80
2019-04-06T11:37:19.945Z,21.70
2019-04-06T11:39:49.871Z,21.60
2019-04-06T11:42:36.202Z,21.60
2019-04-06T11:45:12.139Z,21.50
2019-04-06T11:47:48.446Z,21.40
2019-04-06T11:50:27.265Z,21.40
2019-04-06T11:52:57.486Z,21.30
2019-04-06T11:55:27.396Z,21.30
2019-04-06T11:58:12.354Z,21.30
2019-04-06T12:00:42.613Z,21.20
2019-04-06T12:03:12.865Z,21.20
2019-04-06T12:05:51.535Z,21.10
2019-04-06T12:08:39.637Z,21.20
2019-04-06T12:11:09.752Z,21.10
2019-04-06T12:13:40.106Z,21.10
2019-04-06T12:16:22.533Z,21.10
2019-04-06T12:19:04.433Z,21.00
2019-04-06T12:21:52.289Z,21.00
2019-04-06T12:24:25.071Z,21.00
2019-04-06T12:27:11.123Z,21.00
2019-04-06T12:29:58.669Z,21.00
2019-04-06T12:32:28.914Z,21.00
2019-04-06T12:34:59.291Z,21.00
2019-04-06T12:37:38.442Z,21.00
2019-04-06T12:40:21.068Z,21.00
2019-04-06T12:42:56.932Z,21.00
2019-04-06T12:45:29.532Z,21.00
2019-04-06T12:48:16.165Z,21.00
2019-04-06T12:50:55.103Z,21.00
2019-04-06T12:53:40.092Z,20.90
2019-04-06T12:56:15.706Z,20.90
2019-04-06T12:58:48.736Z,20.90
2019-04-06T13:01:30.845Z,20.90
2019-04-06T13:04:06.530Z,20.90
2019-04-06T13:06:52.634Z,20.90
2019-04-06T13:09:34.812Z,20.80
2019-04-06T13:12:07.738Z,20.90
2019-04-06T13:14:40.150Z,20.80
2019-04-06T13:17:13.099Z,20.90
2019-04-06T13:19:43.031Z,20.90
2019-04-06T13:22:18.466Z,20.90
2019-04-06T13:24:48.398Z,20.90
2019-04-06T13:27:34.253Z,20.90
2019-04-06T13:30:21.440Z,20.80
2019-04-06T13:32:51.362Z,20.90
2019-04-06T13:35:29.952Z,20.90
2019-04-06T13:38:02.584Z,20.90
2019-04-06T13:40:38.494Z,20.90
2019-04-06T13:43:08.443Z,20.90
2019-04-06T13:45:47.527Z,20.80
2019-04-06T13:48:17.507Z,20.80
2019-04-06T13:50:50.470Z,20.80
2019-04-06T13:53:20.397Z,20.80
2019-04-06T13:56:02.113Z,20.80
2019-04-06T13:58:34.752Z,20.80
2019-04-06T14:01:14.312Z,20.80
2019-04-06T14:03:51.185Z,20.80
2019-04-06T14:06:37.089Z,20.80
2019-04-06T14:09:27.125Z,20.80
2019-04-06T14:11:57.351Z,20.80
2019-04-06T14:14:30.510Z,20.80
2019-04-06T14:17:16.672Z,20.80
2019-04-06T14:19:46.654Z,20.80
2019-04-06T14:22:19.871Z,20.80
2019-04-06T14:24:50.362Z,20.80
2019-04-06T14:27:20.666Z,20.90
2019-04-06T14:29:53.336Z,20.90
2019-04-06T14:32:26.250Z,20.90
2019-04-06T14:34:59.224Z,20.80
2019-04-06T14:37:29.512Z,20.80
2019-04-06T14:40:05.744Z,20.80
2019-04-06T14:42:36.159Z,20.90
2019-04-06T14:45:10.161Z,20.90
2019-04-06T14:47:58.310Z,20.90
2019-04-06T14:50:28.734Z,20.90
2019-04-06T14:53:04.715Z,20.90
2019-04-06T14:55:40.272Z,20.90
2019-04-06T14:58:16.018Z,20.90
2019-04-06T15:01:02.394Z,20.90
2019-04-06T15:03:48.169Z,21.00
2019-04-06T15:06:18.116Z,20.90
2019-04-06T15:08:51.013Z,20.90
2019-04-06T15:11:36.070Z,21.00
2019-04-06T15:14:08.761Z,20.90
2019-04-06T15:16:39.072Z,20.90
2019-04-06T15:19:16.404Z,20.90
2019-04-06T15:22:02.629Z,20.90
2019-04-06T15:24:38.445Z,20.90
2019-04-06T15:27:14.599Z,20.90
2019-04-06T15:29:44.639Z,20.90
2019-04-06T15:32:26.791Z,20.90
2019-04-06T15:34:56.801Z,20.90
2019-04-06T15:37:29.149Z,20.90
2019-04-06T15:40:02.076Z,21.00
2019-04-06T15:42:48.347Z,20.90
2019-04-06T15:45:34.537Z,21.00
2019-04-06T15:48:20.652Z,21.00
2019-04-06T15:50:50.658Z,20.90
2019-04-06T15:53:20.711Z,20.90
2019-04-06T15:56:02.544Z,20.90
2019-04-06T15:58:41.188Z,20.90
2019-04-06T16:01:26.292Z,20.90
2019-04-06T16:04:12.834Z,20.90
2019-04-06T16:06:51.946Z,20.90
2019-04-06T16:09:38.374Z,20.90
2019-04-06T16:12:10.752Z,20.90
2019-04-06T16:14:46.438Z,20.90
2019-04-06T16:17:32.609Z,20.90
2019-04-06T16:20:11.596Z,20.90
2019-04-06T16:22:47.615Z,20.90
2019-04-06T16:25:35.531Z,20.80
2019-04-06T16:28:05.756Z,20.80
2019-04-06T16:30:41.789Z,20.80
2019-04-06T16:33:11.738Z,20.80
2019-04-06T16:38:37.981Z,20.80
2019-04-06T16:41:17.430Z,20.80
2019-04-06T16:44:05.898Z,20.80
2019-04-06T16:46:42.519Z,20.80
2019-04-06T16:49:28.921Z,20.80
2019-04-06T16:52:15.077Z,20.80
2019-04-06T16:54:45.353Z,20.80
2019-04-06T16:57:15.403Z,20.70
2019-04-06T16:59:45.329Z,20.70
2019-04-06T17:02:30.613Z,20.70
2019-04-06T17:05:00.535Z,20.70
2019-04-06T17:07:33.534Z,20.70
2019-04-06T17:10:03.554Z,20.70
2019-04-06T17:12:36.582Z,20.70
2019-04-06T17:15:13.402Z,20.80
2019-04-06T17:17:52.631Z,20.70
2019-04-06T17:20:25.532Z,20.80
2019-04-06T17:22:55.461Z,20.70
2019-04-06T17:25:31.496Z,20.70
2019-04-06T17:28:01.627Z,20.70
2019-04-06T17:30:34.856Z,20.80
2019-04-06T17:33:10.897Z,20.80
2019-04-06T17:35:57.152Z,20.80
2019-04-06T17:38:27.395Z,20.70
2019-04-06T17:41:00.107Z,20.80
2019-04-06T17:43:47.466Z,20.80
2019-04-06T17:46:34.155Z,20.80
2019-04-06T17:49:23.313Z,20.80
2019-04-06T17:51:52.844Z,20.80
2019-04-06T17:54:34.956Z,20.70
2019-04-06T17:57:07.915Z,20.70
2019-04-06T17:59:47.025Z,20.70
2019-04-06T18:02:20.331Z,20.70
2019-04-06T18:05:06.880Z,20.70
2019-04-06T18:07:39.629Z,20.80
2019-04-06T18:10:12.739Z,20.80
2019-04-06T18:12:54.712Z,20.80
2019-04-06T18:15:23.089Z,20.80
2019-04-06T18:17:51.381Z,20.90
2019-04-06T18:20:19.749Z,20.90
2019-04-06T18:22:48.344Z,20.90
2019-04-06T18:25:16.749Z,20.90
2019-04-06T18:27:45.110Z,21.00
2019-04-06T18:30:13.456Z,21.00
2019-04-06T18:32:59.816Z,21.00
2019-04-06T18:35:19.360Z,20.90
2019-04-06T18:37:49.297Z,21.00
2019-04-06T18:40:22.670Z,21.00
2019-04-06T18:42:51.015Z,21.00
2019-04-06T18:45:19.460Z,21.00
2019-04-06T18:47:47.730Z,21.00
2019-04-06T18:50:16.011Z,21.00
2019-04-06T18:52:44.317Z,21.00
2019-04-06T18:55:12.964Z,21.00
2019-04-06T18:57:41.365Z,21.00
2019-04-06T19:00:13.560Z,21.00
2019-04-06T19:02:41.887Z,21.00
2019-04-06T19:05:10.211Z,21.00
2019-04-06T19:07:38.507Z,21.00
2019-04-06T19:10:07.053Z,21.00
2019-04-06T19:12:36.253Z,21.10
2019-04-06T19:15:06.947Z,21.10
2019-04-06T19:17:35.369Z,21.10
2019-04-06T19:20:05.713Z,21.10
2019-04-06T19:22:34.435Z,21.10
2019-04-06T19:25:02.729Z,21.10
2019-04-06T19:27:31.003Z,21.10
2019-04-06T19:29:59.592Z,21.10
2019-04-06T19:32:27.961Z,21.10
2019-04-06T19:34:56.322Z,21.10
2019-04-06T19:37:24.909Z,21.10
2019-04-06T19:39:53.681Z,21.10
2019-04-06T19:42:21.965Z,21.20
2019-04-06T19:44:50.239Z,21.10
2019-04-06T19:47:18.547Z,21.10
2019-04-06T19:49:46.882Z,21.10
2019-04-06T19:52:15.181Z,21.10
2019-04-06T19:54:43.461Z,21.10
2019-04-06T19:57:11.918Z,21.10
2019-04-06T19:59:40.197Z,21.10
2019-04-06T20:02:08.813Z,21.10
2019-04-06T20:04:37.635Z,21.10
2019-04-06T20:07:06.490Z,21.10
2019-04-06T20:09:34.864Z,21.10
2019-04-06T20:12:05.663Z,21.10
2019-04-06T20:14:33.234Z,21.10
2019-04-06T20:17:02.032Z,21.10
2019-04-06T20:19:30.435Z,21.10
2019-04-06T20:21:58.840Z,21.10
2019-04-06T20:24:27.379Z,21.10
2019-04-06T20:26:56.091Z,21.10
2019-04-06T20:29:24.801Z,21.10
2019-04-06T20:31:53.202Z,21.10
2019-04-06T20:34:21.884Z,21.00
2019-04-06T20:36:50.272Z,21.00
2019-04-06T20:39:18.656Z,21.10
2019-04-06T20:41:47.006Z,21.00
2019-04-06T20:44:15.550Z,21.00
2019-04-06T20:46:44.189Z,21.00
2019-04-06T20:49:12.534Z,21.00
2019-04-06T20:51:40.815Z,21.00
2019-04-06T20:54:09.376Z,21.00
2019-04-06T20:56:37.848Z,21.00
2019-04-06T20:59:06.476Z,21.00
2019-04-06T21:01:34.895Z,20.90
2019-04-06T21:04:03.294Z,21.00
2019-04-06T21:06:31.654Z,21.00
2019-04-06T21:09:00.011Z,21.00
2019-04-06T21:11:28.907Z,20.90
2019-04-06T21:13:57.235Z,20.90
2019-04-06T21:16:25.534Z,20.90
2019-04-06T21:18:53.892Z,20.90
2019-04-06T21:21:22.239Z,20.90
2019-04-06T21:23:50.536Z,20.90
2019-04-06T21:26:18.820Z,20.90
2019-04-06T21:28:47.673Z,20.90
2019-04-06T21:31:16.084Z,20.90
2019-04-06T21:33:45.854Z,20.90
2019-04-06T21:36:14.368Z,20.80
2019-04-06T21:38:42.958Z,20.90
2019-04-06T21:41:11.406Z,20.80
2019-04-06T21:43:40.220Z,20.80
2019-04-06T21:46:08.911Z,20.80
2019-04-06T21:48:37.815Z,20.80
2019-04-06T21:51:06.675Z,20.80
2019-04-06T21:53:35.764Z,20.80
2019-04-06T21:56:07.388Z,20.80
2019-04-06T21:58:34.546Z,20.80
2019-04-06T22:01:03.161Z,20.80
2019-04-06T22:03:31.509Z,20.80
2019-04-06T22:05:59.805Z,20.70
2019-04-06T22:08:28.089Z,20.80
2019-04-06T22:10:56.459Z,20.80
2019-04-06T22:13:25.044Z,20.80
2019-04-06T22:15:53.917Z,20.70
2019-04-06T22:18:22.253Z,20.70
2019-04-06T22:20:51.232Z,20.70
2019-04-06T22:23:19.882Z,20.70
2019-04-06T22:25:48.258Z,20.70
2019-04-06T22:28:16.531Z,20.70
2019-04-06T22:30:45.002Z,20.70
2019-04-06T22:33:13.879Z,20.70
2019-04-06T22:35:42.230Z,20.70
2019-04-06T22:38:10.932Z,20.70
2019-04-06T22:40:39.561Z,20.70
2019-04-06T22:43:08.029Z,20.70
2019-04-06T22:45:36.432Z,20.70
2019-04-06T22:48:04.770Z,20.70
2019-04-06T22:50:33.735Z,20.70
2019-04-06T22:53:02.634Z,20.70
2019-04-06T22:55:30.993Z,20.60
2019-04-06T22:57:59.266Z,20.60
2019-04-06T23:00:29.405Z,20.60
2019-04-06T23:03:02.528Z,20.60
2019-04-06T23:05:32.682Z,20.60
2019-04-06T23:08:01.019Z,20.60
2019-04-06T23:10:29.455Z,20.60
2019-04-06T23:12:58.076Z,20.60
2019-04-06T23:15:26.413Z,20.50
2019-04-06T23:17:55.449Z,20.60
2019-04-06T23:20:24.367Z,20.50
2019-04-06T23:22:52.713Z,20.50
2019-04-06T23:25:21.195Z,20.50
2019-04-06T23:27:49.555Z,20.50
2019-04-06T23:30:18.100Z,20.50
2019-04-06T23:32:46.677Z,20.50
2019-04-06T23:35:15.234Z,20.50
2019-04-06T23:37:43.627Z,20.50
2019-04-06T23:40:12.306Z,20.40
2019-04-06T23:42:40.743Z,20.40
2019-04-06T23:45:09.178Z,20.40
2019-04-06T23:47:37.698Z,20.40
2019-04-06T23:50:06.683Z,20.40
2019-04-06T23:52:35.433Z,20.40
2019-04-06T23:55:05.673Z,20.40
2019-04-06T23:57:33.973Z,20.40
